Time;durP1;ratioP1;P1;durP2;ratioP2;P2;SDS_P1;SDS_P2;PMS_P1;PMS_P2;Temp;Humidity;BMP_temperature;BMP_pressure;BME280_temperature;BME280_humidity;BME280_pressure;Samples;Min_cycle;Max_cycle;Signal;HPM_P1;HPM_P2
2022/08/10 00:00:21;;;;;;;;;;;;;;;-144.99;100.00;61100.13;5059240;28;20043;-65
2022/08/10 00:02:47;;;;;;;;;;;;;;;-144.99;100.00;61100.13;5054809;28;19935;-68
2022/08/10 00:05:14;;;;;;;;;;;;;;;-144.99;100.00;61100.13;5052965;28;19925;-67
2022/08/10 00:07:41;;;;;;;;;;;;;;;-144.99;100.00;61100.13;5059524;28;20005;-66
2022/08/10 00:10:08;;;;;;;;;;;;;;;-144.99;100.00;61100.13;5053679;28;19929;-67
2022/08/10 00:12:34;;;;;;;;;;;;;;;-144.99;100.00;61100.13;5053053;28;19931;-66
2022/08/10 00:15:02;;;;;;;;;;;;;;;-144.99;100.00;61100.13;5060056;28;19925;-66
2022/08/10 00:17:29;;;;;;;;;;;;;;;-144.99;100.00;61100.13;5058119;28;19951;-65
2022/08/10 00:19:55;;;;;;;;;;;;;;;-144.99;100.00;61100.13;5053695;28;20005;-65
2022/08/10 00:22:22;;;;;;;;;;;;;;;-144.99;100.00;61100.13;5054493;28;20567;-65
2022/08/10 00:24:48;;;;;;;;;;;;;;;-144.99;100.00;61100.13;5055557;28;19925;-66
2022/08/10 00:27:15;;;;;;;;;;;;;;;-144.99;100.00;61100.13;5065094;28;20015;-65
2022/08/10 00:29:41;;;;;;;;;;;;;;;-144.99;100.00;61100.13;5084121;28;19947;-64
2022/08/10 00:32:09;;;;;;;;;;;;;;;-144.99;100.00;61100.13;5085125;28;19971;-65
2022/08/10 00:34:35;;;;;;;;;;;;;;;-144.99;100.00;61100.13;5065031;28;19925;-66
2022/08/10 00:37:02;;;;;;;;;;;;;;;-144.99;100.00;61100.13;5063835;28;19925;-65
2022/08/10 00:39:29;;;;;;;;;;;;;;;-144.99;100.00;61100.13;5067559;28;20400;-66
2022/08/10 00:41:55;;;;;;;;;;;;;;;-144.99;100.00;61100.13;5070106;28;19989;-65
2022/08/10 00:44:22;;;;;;;;;;;;;;;-144.99;100.00;61100.13;5075131;28;19925;-65
2022/08/10 00:46:48;;;;;;;;;;;;;;;-144.99;100.00;61100.13;5071795;28;19925;-67
2022/08/10 00:49:16;;;;;;;;;;;;;;;-144.99;100.00;61100.13;5064559;28;19964;-67
2022/08/10 00:51:43;;;;;;;;;;;;;;;-144.99;100.00;61100.13;5062348;28;20341;-67
2022/08/10 00:54:09;;;;;;;;;;;;;;;-144.99;100.00;61100.13;5062953;28;19968;-66
2022/08/10 00:56:36;;;;;;;;;;;;;;;-144.99;100.00;61100.13;5062045;28;19925;-66
2022/08/10 00:59:03;;;;;;;;;;;;;;;-144.99;100.00;61100.13;5066474;28;19965;-66
2022/08/10 01:01:29;;;;;;;;;;;;;;;-144.99;100.00;61100.13;5061351;28;19929;-67
2022/08/10 01:03:56;;;;;;;;;;;;;;;-144.99;100.00;61100.13;5071833;28;20015;-66
2022/08/10 01:06:26;;;;;;;;;;;;;;;-144.99;100.00;61100.13;5064258;28;20015;-66
2022/08/10 01:08:56;;;;;;;;;;;;;;;-144.99;100.00;61100.13;5069786;28;20011;-68
2022/08/10 01:11:29;;;;;;;;;;;;;;;-144.99;100.00;61100.13;5063527;28;19925;-63
2022/08/10 01:13:59;;;;;;;;;;;;;;;-144.99;100.00;61100.13;5054717;28;20023;-63
2022/08/10 01:16:30;;;;;;;;;;;;;;;-144.99;100.00;61100.13;5055531;28;19924;-63
2022/08/10 01:19:00;;;;;;;;;;;;;;;-144.99;100.00;61100.13;5062475;28;19925;-65
2022/08/10 01:21:45;;;;;;;;;;;;;;;-144.99;100.00;61100.13;5055348;28;19925;-65
2022/08/10 01:24:39;;;;;;;;;;;;;;;-144.99;100.00;61100.13;5058419;28;20024;-65
2022/08/10 01:27:31;;;;;;;;;;;;;;;-144.99;100.00;61100.13;5056718;28;19925;-64
2022/08/10 01:30:02;;;;;;;;;;;;;;;-144.99;100.00;61100.13;5052369;28;19935;-65
2022/08/10 01:32:36;;;;;;;;;;;;;;;-144.99;100.00;61100.13;5053967;28;19935;-67
2022/08/10 01:35:06;;;;;;;;;;;;;;;-144.99;100.00;61100.13;5054280;28;20051;-76
2022/08/10 01:37:34;;;;;;;;;;;;;;;-144.99;100.00;61100.13;5061618;28;19924;-77
2022/08/10 01:40:03;;;;;;;;;;;;;;;-144.99;100.00;61100.13;5065676;28;20019;-68
2022/08/10 01:42:30;;;;;;;;;;;;;;;-144.99;100.00;61100.13;5053489;28;19940;-68
2022/08/10 01:45:00;;;;;;;;;;;;;;;-144.99;100.00;61100.13;5052909;28;19974;-68
2022/08/10 01:50:17;;;;;;;;;;;;;;;-144.99;100.00;61100.13;5056625;28;19939;-67
2022/08/10 01:52:46;;;;;;;;;;;;;;;-144.99;100.00;61100.13;5073462;28;20501;-69
2022/08/10 01:55:13;;;;;;;;;;;;;;;-144.99;100.00;61100.13;5065065;28;19938;-71
2022/08/10 01:57:41;;;;;;;;;;;;;;;-144.99;100.00;61100.13;5066881;28;19932;-71
2022/08/10 02:00:09;;;;;;;;;;;;;;;-144.99;100.00;61100.13;5056573;28;20018;-69
2022/08/10 02:02:38;;;;;;;;;;;;;;;-144.99;100.00;61100.13;5053229;28;19925;-69
2022/08/10 02:05:06;;;;;;;;;;;;;;;-144.99;100.00;61100.13;5059075;28;19963;-66
2022/08/10 02:07:33;;;;;;;;;;;;;;;-144.99;100.00;61100.13;5064492;28;19924;-67
2022/08/10 02:10:01;;;;;;;;;;;;;;;-144.99;100.00;61100.13;5063266;28;19986;-67
2022/08/10 02:12:30;;;;;;;;;;;;;;;-144.99;100.00;61100.13;5064030;28;19925;-67
2022/08/10 02:14:58;;;;;;;;;;;;;;;-144.99;100.00;61100.13;5051752;28;19963;-66
2022/08/10 02:17:26;;;;;;;;;;;;;;;-144.99;100.00;61100.13;5051168;28;19947;-67
2022/08/10 02:19:56;;;;;;;;;;;;;;;-144.99;100.00;61100.13;5071349;28;20023;-67
2022/08/10 02:22:24;;;;;;;;;;;;;;;-144.99;100.00;61100.13;5072350;28;20361;-68
2022/08/10 02:24:52;;;;;;;;;;;;;;;-144.99;100.00;61100.13;5072311;28;19983;-69
2022/08/10 02:27:21;;;;;;;;;;;;;;;-144.99;100.00;61100.13;5068696;28;20035;-69
2022/08/10 02:29:48;;;;;;;;;;;;;;;-144.99;100.00;61100.13;5057450;28;19924;-68
2022/08/10 02:32:15;;;;;;;;;;;;;;;-144.99;100.00;61100.13;5057991;28;20380;-70
2022/08/10 02:34:42;;;;;;;;;;;;;;;-144.99;100.00;61100.13;5054141;28;19983;-70
2022/08/10 02:37:11;;;;;;;;;;;;;;;-144.99;100.00;61100.13;5066617;28;19928;-68
2022/08/10 02:39:37;;;;;;;;;;;;;;;-144.99;100.00;61100.13;5052695;28;19931;-72
2022/08/10 02:42:08;;;;;;;;;;;;;;;-144.99;100.00;61100.13;5052518;28;20027;-64
2022/08/10 02:44:38;;;;;;;;;;;;;;;-144.99;100.00;61100.13;5050759;28;20027;-62
2022/08/10 02:47:08;;;;;;;;;;;;;;;-144.99;100.00;61100.13;5056189;28;19951;-62
2022/08/10 02:49:36;;;;;;;;;;;;;;;-144.99;100.00;61100.13;5058685;28;20367;-64
2022/08/10 02:52:07;;;;;;;;;;;;;;;-144.99;100.00;61100.13;5050665;28;20042;-64
2022/08/10 02:54:36;;;;;;;;;;;;;;;-144.99;100.00;61100.13;5051362;28;20027;-65
2022/08/10 02:57:07;;;;;;;;;;;;;;;-144.99;100.00;61100.13;5057564;28;20011;-65
2022/08/10 02:59:37;;;;;;;;;;;;;;;-144.99;100.00;61100.13;5052370;28;19925;-66
2022/08/10 03:02:06;;;;;;;;;;;;;;;-144.99;100.00;61100.13;5055239;28;19925;-65
2022/08/10 03:04:34;;;;;;;;;;;;;;;-144.99;100.00;61100.13;5072152;28;19931;-65
2022/08/10 03:07:02;;;;;;;;;;;;;;;-144.99;100.00;61100.13;5053721;28;19924;-66
2022/08/10 03:09:30;;;;;;;;;;;;;;;-144.99;100.00;61100.13;5051524;28;19925;-68
2022/08/10 03:11:58;;;;;;;;;;;;;;;-144.99;100.00;61100.13;5060392;28;20002;-68
2022/08/10 03:14:25;;;;;;;;;;;;;;;-144.99;100.00;61100.13;5056393;28;19924;-68
2022/08/10 03:16:53;;;;;;;;;;;;;;;-144.99;100.00;61100.13;5055548;28;19956;-68
2022/08/10 03:19:20;;;;;;;;;;;;;;;-144.99;100.00;61100.13;5051088;28;19925;-68
2022/08/10 03:21:48;;;;;;;;;;;;;;;-144.99;100.00;61100.13;5054114;28;19931;-67
2022/08/10 03:24:19;;;;;;;;;;;;;;;-144.99;100.00;61100.13;5055084;28;19925;-67
2022/08/10 03:26:45;;;;;;;;;;;;;;;-144.99;100.00;61100.13;5053945;28;19925;-67
2022/08/10 03:29:13;;;;;;;;;;;;;;;-144.99;100.00;61100.13;5057902;28;20023;-69
2022/08/10 03:31:40;;;;;;;;;;;;;;;-144.99;100.00;61100.13;5057280;28;19931;-69
2022/08/10 03:34:06;;;;;;;;;;;;;;;-144.99;100.00;61100.13;5057850;28;20375;-68
2022/08/10 03:36:33;;;;;;;;;;;;;;;-144.99;100.00;61100.13;5058030;28;19928;-68
2022/08/10 03:38:59;;;;;;;;;;;;;;;-144.99;100.00;61100.13;5058409;28;19986;-68
2022/08/10 03:41:29;;;;;;;;;;;;;;;-144.99;100.00;61100.13;5051832;28;20034;-68
2022/08/10 03:43:56;;;;;;;;;;;;;;;-144.99;100.00;61100.13;5062005;28;19925;-69
2022/08/10 03:46:25;;;;;;;;;;;;;;;-144.99;100.00;61100.13;5060939;28;20442;-68
2022/08/10 03:48:53;;;;;;;;;;;;;;;-144.99;100.00;61100.13;5060463;28;20043;-69
2022/08/10 03:51:21;;;;;;;;;;;;;;;-144.99;100.00;61100.13;5057716;28;19963;-68
2022/08/10 03:53:48;;;;;;;;;;;;;;;-144.99;100.00;61100.13;5064402;28;20082;-68
2022/08/10 03:56:15;;;;;;;;;;;;;;;-144.99;100.00;61100.13;5063479;28;19983;-69
2022/08/10 03:58:42;;;;;;;;;;;;;;;-144.99;100.00;61100.13;5058509;28;20027;-69
2022/08/10 04:01:09;;;;;;;;;;;;;;;-144.99;100.00;61100.13;5067350;28;19935;-69
2022/08/10 04:03:37;;;;;;;;;;;;;;;-144.99;100.00;61100.13;5058908;28;20008;-67
2022/08/10 04:06:03;;;;;;;;;;;;;;;-144.99;100.00;61100.13;5057705;28;19931;-71
2022/08/10 04:08:30;;;;;;;;;;;;;;;-144.99;100.00;61100.13;5066142;28;19930;-71
2022/08/10 04:10:56;;;;;;;;;;;;;;;-144.99;100.00;61100.13;5060176;28;19987;-71
2022/08/10 04:13:23;;;;;;;;;;;;;;;-144.99;100.00;61100.13;5060917;28;20387;-71
2022/08/10 04:15:49;;;;;;;;;;;;;;;-144.99;100.00;61100.13;5050712;28;20460;-71
2022/08/10 04:18:16;;;;;;;;;;;;;;;-144.99;100.00;61100.13;5069068;28;20019;-71
2022/08/10 04:20:45;;;;;;;;;;;;;;;-144.99;100.00;61100.13;5069483;28;20050;-71
2022/08/10 04:23:14;;;;;;;;;;;;;;;-144.99;100.00;61100.13;5059299;28;20053;-71
2022/08/10 04:25:41;;;;;;;;;;;;;;;-144.99;100.00;61100.13;5055506;28;19924;-70
2022/08/10 04:28:08;;;;;;;;;;;;;;;-144.99;100.00;61100.13;5058172;28;19924;-71
2022/08/10 04:30:35;;;;;;;;;;;;;;;-144.99;100.00;61100.13;5062287;28;19928;-72
2022/08/10 04:33:04;;;;;;;;;;;;;;;-144.99;100.00;61100.13;5070098;28;19956;-71
2022/08/10 04:35:32;;;;;;;;;;;;;;;-144.99;100.00;61100.13;5065040;28;19928;-71
2022/08/10 04:38:00;;;;;;;;;;;;;;;-144.99;100.00;61100.13;5058120;28;20301;-72
2022/08/10 04:40:27;;;;;;;;;;;;;;;-144.99;100.00;61100.13;5057416;28;19946;-71
2022/08/10 04:42:54;;;;;;;;;;;;;;;-144.99;100.00;61100.13;5056707;28;20405;-71
2022/08/10 04:45:20;;;;;;;;;;;;;;;-144.99;100.00;61100.13;5061394;28;19991;-71
2022/08/10 04:47:47;;;;;;;;;;;;;;;-144.99;100.00;61100.13;5056216;28;19931;-70
2022/08/10 04:50:13;;;;;;;;;;;;;;;-144.99;100.00;61100.13;5064050;28;20012;-71
2022/08/10 04:52:40;;;;;;;;;;;;;;;-144.99;100.00;61100.13;5059312;28;20020;-73
2022/08/10 04:55:08;;;;;;;;;;;;;;;-144.99;100.00;61100.13;5053784;28;20015;-70
2022/08/10 04:57:34;;;;;;;;;;;;;;;-144.99;100.00;61100.13;5058346;28;20023;-70
2022/08/10 05:00:01;;;;;;;;;;;;;;;-144.99;100.00;61100.13;5063225;28;20061;-71
2022/08/10 05:02:27;;;;;;;;;;;;;;;-144.99;100.00;61100.13;5054361;28;19925;-71
2022/08/10 05:04:54;;;;;;;;;;;;;;;-144.99;100.00;61100.13;5059194;28;19932;-70
2022/08/10 05:07:20;;;;;;;;;;;;;;;-144.99;100.00;61100.13;5065001;28;20381;-71
2022/08/10 05:09:48;;;;;;;;;;;;;;;-144.99;100.00;61100.13;5075452;28;20011;-71
2022/08/10 05:12:16;;;;;;;;;;;;;;;-144.99;100.00;61100.13;5066020;28;20016;-71
2022/08/10 05:14:42;;;;;;;;;;;;;;;-144.99;100.00;61100.13;5064775;28;19938;-71
2022/08/10 05:17:08;;;;;;;;;;;;;;;-144.99;100.00;61100.13;5060526;28;19924;-70
2022/08/10 05:19:35;;;;;;;;;;;;;;;-144.99;100.00;61100.13;5060268;28;20451;-70
2022/08/10 05:22:03;;;;;;;;;;;;;;;-144.99;100.00;61100.13;5057930;28;20110;-71
2022/08/10 05:24:29;;;;;;;;;;;;;;;-144.99;100.00;61100.13;5059817;28;19963;-70
2022/08/10 05:26:56;;;;;;;;;;;;;;;-144.99;100.00;61100.13;5066092;28;19951;-71
2022/08/10 05:29:23;;;;;;;;;;;;;;;-144.99;100.00;61100.13;5058281;28;20267;-70
2022/08/10 05:31:50;;;;;;;;;;;;;;;-144.99;100.00;61100.13;5057994;28;20015;-70
2022/08/10 05:34:17;;;;;;;;;;;;;;;-144.99;100.00;61100.13;5062038;28;19933;-72
2022/08/10 05:36:45;;;;;;;;;;;;;;;-144.99;100.00;61100.13;5057145;28;20082;-73
2022/08/10 05:39:12;;;;;;;;;;;;;;;-144.99;100.00;61100.13;5057523;28;20019;-72
2022/08/10 05:41:39;;;;;;;;;;;;;;;-144.99;100.00;61100.13;5053769;28;19925;-71
2022/08/10 05:44:05;;;;;;;;;;;;;;;-144.99;100.00;61100.13;5060709;28;20015;-72
2022/08/10 05:46:33;;;;;;;;;;;;;;;-144.99;100.00;61100.13;5056771;28;20006;-71
2022/08/10 05:49:00;;;;;;;;;;;;;;;-144.99;100.00;61100.13;5062210;28;20011;-72
2022/08/10 05:51:27;;;;;;;;;;;;;;;-144.99;100.00;61100.13;5059733;28;19925;-71
2022/08/10 05:53:53;;;;;;;;;;;;;;;-144.99;100.00;61100.13;5062628;28;19924;-72
2022/08/10 05:56:20;;;;;;;;;;;;;;;-144.99;100.00;61100.13;5067496;28;20004;-72
2022/08/10 05:58:46;;;;;;;;;;;;;;;-144.99;100.00;61100.13;5062187;28;19929;-71
2022/08/10 06:01:14;;;;;;;;;;;;;;;-144.99;100.00;61100.13;5057314;28;20011;-73
2022/08/10 06:03:46;;;;;;;;;;;;;;;-144.99;100.00;61100.13;5066827;28;20011;-72
2022/08/10 06:06:14;;;;;;;;;;;;;;;-144.99;100.00;61100.13;5054833;28;20377;-74
2022/08/10 06:08:42;;;;;;;;;;;;;;;-144.99;100.00;61100.13;5060207;28;19972;-71
2022/08/10 06:11:11;;;;;;;;;;;;;;;-144.99;100.00;61100.13;5067014;28;20353;-73
2022/08/10 06:16:24;;;;;;;;;;;;;;;-144.99;100.00;61100.13;5058879;28;19931;-72
2022/08/10 06:18:52;;;;;;;;;;;;;;;-144.99;100.00;61100.13;5053286;28;19929;-71
2022/08/10 06:21:19;;;;;;;;;;;;;;;-144.99;100.00;61100.13;5054199;28;19925;-72
2022/08/10 06:23:45;;;;;;;;;;;;;;;-144.99;100.00;61100.13;5068971;28;19925;-74
2022/08/10 06:26:12;;;;;;;;;;;;;;;-144.99;100.00;61100.13;5064315;28;20050;-72
2022/08/10 06:28:40;;;;;;;;;;;;;;;-144.99;100.00;61100.13;5056826;28;19939;-72
2022/08/10 06:31:07;;;;;;;;;;;;;;;-144.99;100.00;61100.13;5056652;28;20027;-71
2022/08/10 06:33:36;;;;;;;;;;;;;;;-144.99;100.00;61100.13;5056050;28;20036;-72
2022/08/10 06:36:07;;;;;;;;;;;;;;;-144.99;100.00;61100.13;5065150;28;20246;-71
2022/08/10 06:38:34;;;;;;;;;;;;;;;-144.99;100.00;61100.13;5066179;28;19924;-72
2022/08/10 06:41:04;;;;;;;;;;;;;;;-144.99;100.00;61100.13;5061618;28;19931;-71
2022/08/10 06:43:32;;;;;;;;;;;;;;;-144.99;100.00;61100.13;5055979;28;20353;-71
2022/08/10 06:46:00;;;;;;;;;;;;;;;-144.99;100.00;61100.13;5055246;28;20344;-72
2022/08/10 06:48:28;;;;;;;;;;;;;;;-144.99;100.00;61100.13;5055326;28;19928;-72
2022/08/10 06:50:59;;;;;;;;;;;;;;;-144.99;100.00;61100.13;5056441;28;19975;-72
2022/08/10 06:53:29;;;;;;;;;;;;;;;-144.99;100.00;61100.13;5054411;28;20012;-72
2022/08/10 06:55:58;;;;;;;;;;;;;;;-144.99;100.00;61100.13;5055425;28;19924;-72
2022/08/10 06:58:26;;;;;;;;;;;;;;;-144.99;100.00;61100.13;5055797;28;19931;-75
2022/08/10 07:00:53;;;;;;;;;;;;;;;-144.99;100.00;61100.13;5061984;28;19924;-74
2022/08/10 07:03:21;;;;;;;;;;;;;;;-144.99;100.00;61100.13;5055749;28;19932;-73
2022/08/10 07:05:50;;;;;;;;;;;;;;;-144.99;100.00;61100.13;5067469;28;19958;-72
2022/08/10 07:08:17;;;;;;;;;;;;;;;-144.99;100.00;61100.13;5058200;28;20019;-75
2022/08/10 07:10:46;;;;;;;;;;;;;;;-144.99;100.00;61100.13;5055777;28;20015;-73
2022/08/10 07:13:15;;;;;;;;;;;;;;;-144.99;100.00;61100.13;5063753;28;20356;-74
2022/08/10 07:15:41;;;;;;;;;;;;;;;-144.99;100.00;61100.13;5051753;28;19959;-70
2022/08/10 07:18:09;;;;;;;;;;;;;;;-144.99;100.00;61100.13;5058220;28;20015;-70
2022/08/10 07:20:36;;;;;;;;;;;;;;;-144.99;100.00;61100.13;5051460;28;20412;-71
2022/08/10 07:23:02;;;;;;;;;;;;;;;-144.99;100.00;61100.13;5053156;28;19925;-71
2022/08/10 07:25:29;;;;;;;;;;;;;;;-144.99;100.00;61100.13;5056005;28;20425;-72
2022/08/10 07:27:57;;;;;;;;;;;;;;;-144.99;100.00;61100.13;5055873;28;19925;-73
2022/08/10 07:30:27;;;;;;;;;;;;;;;-144.99;100.00;61100.13;5056140;28;19964;-76
2022/08/10 07:32:55;;;;;;;;;;;;;;;-144.99;100.00;61100.13;5056260;28;19983;-73
2022/08/10 07:35:22;;;;;;;;;;;;;;;-144.99;100.00;61100.13;5067035;28;19924;-74
2022/08/10 07:37:51;;;;;;;;;;;;;;;-144.99;100.00;61100.13;5055856;28;20030;-72
2022/08/10 07:40:19;;;;;;;;;;;;;;;-144.99;100.00;61100.13;5056982;28;19929;-76
2022/08/10 07:42:47;;;;;;;;;;;;;;;-144.99;100.00;61100.13;5057928;28;19935;-75
2022/08/10 07:45:15;;;;;;;;;;;;;;;-144.99;100.00;61100.13;5056046;28;20019;-71
2022/08/10 07:47:43;;;;;;;;;;;;;;;-144.99;100.00;61100.13;5051934;28;20019;-71
2022/08/10 07:50:10;;;;;;;;;;;;;;;-144.99;100.00;61100.13;5057296;28;19971;-72
2022/08/10 07:52:38;;;;;;;;;;;;;;;-144.99;100.00;61100.13;5064940;28;20018;-73
2022/08/10 07:55:06;;;;;;;;;;;;;;;-144.99;100.00;61100.13;5060571;28;20326;-73
2022/08/10 07:57:35;;;;;;;;;;;;;;;-144.99;100.00;61100.13;5060198;28;19925;-73
2022/08/10 08:00:05;;;;;;;;;;;;;;;-144.99;100.00;61100.13;5058384;28;19932;-73
2022/08/10 08:02:35;;;;;;;;;;;;;;;-144.99;100.00;61100.13;5054810;28;19935;-75
2022/08/10 08:05:04;;;;;;;;;;;;;;;-144.99;100.00;61100.13;5054868;28;20354;-72
2022/08/10 08:07:31;;;;;;;;;;;;;;;-144.99;100.00;61100.13;5057198;28;19956;-72
2022/08/10 08:09:59;;;;;;;;;;;;;;;-144.99;100.00;61100.13;5065048;28;20011;-73
2022/08/10 08:12:27;;;;;;;;;;;;;;;-144.99;100.00;61100.13;5068433;28;19959;-74
2022/08/10 08:14:54;;;;;;;;;;;;;;;-144.99;100.00;61100.13;5060729;28;19925;-74
2022/08/10 08:17:21;;;;;;;;;;;;;;;-144.99;100.00;61100.13;5056403;28;19928;-76
2022/08/10 08:19:49;;;;;;;;;;;;;;;-144.99;100.00;61100.13;5059052;28;20021;-73
2022/08/10 08:22:17;;;;;;;;;;;;;;;-144.99;100.00;61100.13;5065600;28;19928;-74
2022/08/10 08:24:44;;;;;;;;;;;;;;;-144.99;100.00;61100.13;5062055;28;19960;-73
2022/08/10 08:27:13;;;;;;;;;;;;;;;-144.99;100.00;61100.13;5055514;28;20012;-73
2022/08/10 08:29:42;;;;;;;;;;;;;;;-144.99;100.00;61100.13;5070533;28;19947;-73
2022/08/10 08:32:09;;;;;;;;;;;;;;;-144.99;100.00;61100.13;5062908;28;19932;-73
2022/08/10 08:34:37;;;;;;;;;;;;;;;-144.99;100.00;61100.13;5054963;28;20016;-73
2022/08/10 08:37:07;;;;;;;;;;;;;;;-144.99;100.00;61100.13;5057691;28;19925;-73
2022/08/10 08:39:35;;;;;;;;;;;;;;;-144.99;100.00;61100.13;5060555;28;20024;-73
2022/08/10 08:42:13;;;;;;;;;;;;;;;-144.99;100.00;61100.13;5059821;28;19924;-72
2022/08/10 08:44:46;;;;;;;;;;;;;;;-144.99;100.00;61100.13;5066319;28;20289;-72
2022/08/10 08:47:23;;;;;;;;;;;;;;;-144.99;100.00;61100.13;5061339;28;19952;-74
2022/08/10 08:49:56;;;;;;;;;;;;;;;-144.99;100.00;61100.13;5068967;28;20018;-75
2022/08/10 08:52:33;;;;;;;;;;;;;;;-144.99;100.00;61100.13;5068197;28;20305;-73
2022/08/10 08:55:09;;;;;;;;;;;;;;;-144.99;100.00;61100.13;5072604;28;20032;-74
2022/08/10 08:57:41;;;;;;;;;;;;;;;-144.99;100.00;61100.13;5067830;28;19936;-76
2022/08/10 09:00:12;;;;;;;;;;;;;;;-144.99;100.00;61100.13;5069732;28;20493;-75
2022/08/10 09:02:57;;;;;;;;;;;;;;;-144.99;100.00;61100.13;5073065;28;19956;-75
2022/08/10 09:05:30;;;;;;;;;;;;;;;-144.99;100.00;61100.13;5087515;28;19924;-75
2022/08/10 09:08:15;;;;;;;;;;;;;;;-144.99;100.00;61100.13;5084282;28;19991;-75
2022/08/10 09:10:45;;;;;;;;;;;;;;;-144.99;100.00;61100.13;5084745;28;19939;-75
2022/08/10 09:13:16;;;;;;;;;;;;;;;-144.99;100.00;61100.13;5083858;28;20019;-75
2022/08/10 09:15:46;;;;;;;;;;;;;;;-144.99;100.00;61100.13;5076946;28;19925;-76
2022/08/10 09:18:17;;;;;;;;;;;;;;;-144.99;100.00;61100.13;5084745;28;19957;-75
2022/08/10 09:20:47;;;;;;;;;;;;;;;-144.99;100.00;61100.13;5090789;28;19965;-75
2022/08/10 09:23:20;;;;;;;;;;;;;;;-144.99;100.00;61100.13;5088180;28;19924;-75
2022/08/10 09:25:52;;;;;;;;;;;;;;;-144.99;100.00;61100.13;5084795;28;19924;-75
2022/08/10 09:28:22;;;;;;;;;;;;;;;-144.99;100.00;61100.13;5085775;28;19924;-76
2022/08/10 09:30:51;;;;;;;;;;;;;;;-144.99;100.00;61100.13;5080471;28;19925;-73
2022/08/10 09:33:20;;;;;;;;;;;;;;;-144.99;100.00;61100.13;5065919;28;19925;-74
2022/08/10 09:35:52;;;;;;;;;;;;;;;-144.99;100.00;61100.13;5065077;28;20020;-73
2022/08/10 09:38:24;;;;;;;;;;;;;;;-144.99;100.00;61100.13;5061817;28;19925;-73
2022/08/10 09:40:57;;;;;;;;;;;;;;;-144.99;100.00;61100.13;5064673;28;19991;-74
2022/08/10 09:43:30;;;;;;;;;;;;;;;-144.99;100.00;61100.13;5058036;28;20259;-73
2022/08/10 09:46:01;;;;;;;;;;;;;;;-144.99;100.00;61100.13;5073457;28;19932;-74
2022/08/10 09:48:43;;;;;;;;;;;;;;;-144.99;100.00;61100.13;5070116;28;19931;-74
2022/08/10 09:51:13;;;;;;;;;;;;;;;-144.99;100.00;61100.13;5066852;28;20413;-73
2022/08/10 09:53:46;;;;;;;;;;;;;;;-144.99;100.00;61100.13;5060153;28;19986;-73
2022/08/10 09:56:21;;;;;;;;;;;;;;;-144.99;100.00;61100.13;5059652;28;19925;-75
2022/08/10 09:58:52;;;;;;;;;;;;;;;-144.99;100.00;61100.13;5070838;28;19924;-73
2022/08/10 10:01:20;;;;;;;;;;;;;;;-144.99;100.00;61100.13;5069957;28;19924;-74
2022/08/10 10:03:52;;;;;;;;;;;;;;;-144.99;100.00;61100.13;5055341;28;20305;-73
2022/08/10 10:06:21;;;;;;;;;;;;;;;-144.99;100.00;61100.13;5057954;28;19925;-72
2022/08/10 10:08:55;;;;;;;;;;;;;;;-144.99;100.00;61100.13;5060195;28;19975;-73
2022/08/10 10:11:24;;;;;;;;;;;;;;;-144.99;100.00;61100.13;5063412;28;20011;-73
2022/08/10 10:13:57;;;;;;;;;;;;;;;-144.99;100.00;61100.13;5053879;28;19972;-72
2022/08/10 10:16:33;;;;;;;;;;;;;;;-144.99;100.00;61100.13;5058106;28;20359;-73
2022/08/10 10:19:04;;;;;;;;;;;;;;;-144.99;100.00;61100.13;5061669;28;19925;-72
2022/08/10 10:21:34;;;;;;;;;;;;;;;-144.99;100.00;61100.13;5053358;28;19932;-71
2022/08/10 10:24:06;;;;;;;;;;;;;;;-144.99;100.00;61100.13;5053370;28;20366;-73
2022/08/10 10:26:38;;;;;;;;;;;;;;;-144.99;100.00;61100.13;5068690;28;19983;-73
2022/08/10 10:29:10;;;;;;;;;;;;;;;-144.99;100.00;61100.13;5062972;28;19925;-72
2022/08/10 10:31:41;;;;;;;;;;;;;;;-144.99;100.00;61100.13;5053779;28;20011;-72
2022/08/10 10:34:12;;;;;;;;;;;;;;;-144.99;100.00;61100.13;5053139;28;20039;-71
2022/08/10 10:36:40;;;;;;;;;;;;;;;-144.99;100.00;61100.13;5053118;28;20365;-72
2022/08/10 10:39:09;;;;;;;;;;;;;;;-144.99;100.00;61100.13;5056881;28;19924;-73
2022/08/10 10:41:40;;;;;;;;;;;;;;;-144.99;100.00;61100.13;5053971;28;19964;-70
2022/08/10 10:44:13;;;;;;;;;;;;;;;-144.99;100.00;61100.13;5054162;28;19980;-72
2022/08/10 10:46:48;;;;;;;;;;;;;;;-144.99;100.00;61100.13;5052604;28;19925;-72
2022/08/10 10:49:26;;;;;;;;;;;;;;;-144.99;100.00;61100.13;5055639;28;20031;-73
2022/08/10 10:51:57;;;;;;;;;;;;;;;-144.99;100.00;61100.13;5051977;28;19939;-72
2022/08/10 10:54:32;;;;;;;;;;;;;;;-144.99;100.00;61100.13;5053011;28;20023;-72
2022/08/10 10:57:05;;;;;;;;;;;;;;;-144.99;100.00;61100.13;5054789;28;20015;-73
2022/08/10 10:59:37;;;;;;;;;;;;;;;-144.99;100.00;61100.13;5057076;28;20341;-72
2022/08/10 11:02:09;;;;;;;;;;;;;;;-144.99;100.00;61100.13;5052638;28;19958;-74
2022/08/10 11:04:40;;;;;;;;;;;;;;;-144.99;100.00;61100.13;5057291;28;19924;-73
2022/08/10 11:07:12;;;;;;;;;;;;;;;-144.99;100.00;61100.13;5059000;28;19924;-72
2022/08/10 11:09:42;;;;;;;;;;;;;;;-144.99;100.00;61100.13;5058929;28;20015;-73
2022/08/10 11:12:18;;;;;;;;;;;;;;;-144.99;100.00;61100.13;5063441;28;19956;-74
2022/08/10 11:14:48;;;;;;;;;;;;;;;-144.99;100.00;61100.13;5064562;28;19924;-74
2022/08/10 11:17:18;;;;;;;;;;;;;;;-144.99;100.00;61100.13;5065378;28;20333;-73
2022/08/10 11:19:46;;;;;;;;;;;;;;;-144.99;100.00;61100.13;5064816;28;20337;-73
2022/08/10 11:22:15;;;;;;;;;;;;;;;-144.99;100.00;61100.13;5069387;28;20335;-72
2022/08/10 11:24:48;;;;;;;;;;;;;;;-144.99;100.00;61100.13;5053305;28;19928;-72
2022/08/10 11:27:17;;;;;;;;;;;;;;;-144.99;100.00;61100.13;5052072;28;20367;-72
2022/08/10 11:29:48;;;;;;;;;;;;;;;-144.99;100.00;61100.13;5054718;28;19928;-72
2022/08/10 11:32:17;;;;;;;;;;;;;;;-144.99;100.00;61100.13;5055912;28;20020;-72
2022/08/10 11:34:50;;;;;;;;;;;;;;;-144.99;100.00;61100.13;5051506;28;20031;-71
2022/08/10 11:37:19;;;;;;;;;;;;;;;-144.99;100.00;61100.13;5051562;28;20020;-72
2022/08/10 11:39:51;;;;;;;;;;;;;;;-144.99;100.00;61100.13;5052534;28;20397;-72
2022/08/10 11:42:21;;;;;;;;;;;;;;;-144.99;100.00;61100.13;5051950;28;19947;-72
2022/08/10 11:44:51;;;;;;;;;;;;;;;-144.99;100.00;61100.13;5055343;28;19974;-72
2022/08/10 11:47:19;;;;;;;;;;;;;;;-144.99;100.00;61100.13;5063012;28;19930;-72
2022/08/10 11:49:49;;;;;;;;;;;;;;;-144.99;100.00;61100.13;5054243;28;20265;-72
2022/08/10 11:52:19;;;;;;;;;;;;;;;-144.99;100.00;61100.13;5054876;28;20015;-72
2022/08/10 11:54:53;;;;;;;;;;;;;;;-144.99;100.00;61100.13;5053801;28;20282;-72
2022/08/10 11:57:19;;;;;;;;;;;;;;;-144.99;100.00;61100.13;5056576;28;19955;-73
2022/08/10 11:59:57;;;;;;;;;;;;;;;-144.99;100.00;61100.13;5054269;28;20024;-72
2022/08/10 12:02:25;;;;;;;;;;;;;;;-144.99;100.00;61100.13;5062737;28;19931;-71
2022/08/10 12:04:52;;;;;;;;;;;;;;;-144.99;100.00;61100.13;5057532;28;19960;-71
2022/08/10 12:07:20;;;;;;;;;;;;;;;-144.99;100.00;61100.13;5063129;28;19931;-71
2022/08/10 12:09:48;;;;;;;;;;;;;;;-144.99;100.00;61100.13;5056832;28;20400;-71
2022/08/10 12:12:15;;;;;;;;;;;;;;;-144.99;100.00;61100.13;5053592;28;19928;-72
2022/08/10 12:14:46;;;;;;;;;;;;;;;-144.99;100.00;61100.13;5054199;28;19931;-71
2022/08/10 12:17:15;;;;;;;;;;;;;;;-144.99;100.00;61100.13;5067461;28;20011;-74
2022/08/10 12:19:43;;;;;;;;;;;;;;;-144.99;100.00;61100.13;5053535;28;20039;-72
2022/08/10 12:22:12;;;;;;;;;;;;;;;-144.99;100.00;61100.13;5053628;28;20015;-72
2022/08/10 12:24:42;;;;;;;;;;;;;;;-144.99;100.00;61100.13;5057954;28;20374;-72
2022/08/10 12:27:11;;;;;;;;;;;;;;;-144.99;100.00;61100.13;5063841;28;20007;-72
2022/08/10 12:29:43;;;;;;;;;;;;;;;-144.99;100.00;61100.13;5063973;28;19925;-73
2022/08/10 12:32:12;;;;;;;;;;;;;;;-144.99;100.00;61100.13;5057955;28;19925;-72